sensor_id;sensor_type;location;lat;lon;timestamp;P1;durP1;ratioP1;P2;durP2;ratioP2
51010;SDS011;37038;50.182;8.624;2022-12-24T04:26:57;15.43;;;3.72;;
51010;SDS011;37038;50.182;8.624;2022-12-24T06:45:24;25.67;;;5.13;;
51010;SDS011;37038;50.182;8.624;2022-12-24T06:49:29;18.30;;;5.30;;
51010;SDS011;37038;50.182;8.624;2022-12-24T07:01:27;23.52;;;4.25;;
51010;SDS011;37038;50.182;8.624;2022-12-24T07:09:49;13.75;;;3.70;;
51010;SDS011;37038;50.182;8.624;2022-12-24T07:12:47;16.48;;;4.78;;
51010;SDS011;37038;50.182;8.624;2022-12-24T07:15:56;22.45;;;4.88;;
51010;SDS011;37038;50.182;8.624;2022-12-24T07:19:21;26.25;;;6.10;;
51010;SDS011;37038;50.182;8.624;2022-12-24T07:22:50;22.63;;;4.53;;
51010;SDS011;37038;50.182;8.624;2022-12-24T07:26:29;19.30;;;4.65;;
51010;SDS011;37038;50.182;8.624;2022-12-24T07:29:36;28.65;;;5.53;;
51010;SDS011;37038;50.182;8.624;2022-12-24T07:37:10;18.83;;;4.40;;
51010;SDS011;37038;50.182;8.624;2022-12-24T07:40:19;24.63;;;5.50;;
51010;SDS011;37038;50.182;8.624;2022-12-24T07:43:16;21.33;;;5.72;;
51010;SDS011;37038;50.182;8.624;2022-12-24T07:53:40;27.67;;;6.03;;
51010;SDS011;37038;50.182;8.624;2022-12-24T08:00:20;27.50;;;6.88;;
51010;SDS011;37038;50.182;8.624;2022-12-24T08:03:42;31.67;;;6.18;;
51010;SDS011;37038;50.182;8.624;2022-12-24T08:16:47;33.65;;;6.80;;
51010;SDS011;37038;50.182;8.624;2022-12-24T08:25:24;27.52;;;6.43;;
51010;SDS011;37038;50.182;8.624;2022-12-24T08:39:31;37.47;;;7.03;;
51010;SDS011;37038;50.182;8.624;2022-12-24T08:42:25;26.70;;;6.30;;
51010;SDS011;37038;50.182;8.624;2022-12-24T08:45:18;26.90;;;7.47;;
51010;SDS011;37038;50.182;8.624;2022-12-24T08:48:13;29.45;;;6.22;;
51010;SDS011;37038;50.182;8.624;2022-12-24T08:51:08;36.65;;;6.85;;
51010;SDS011;37038;50.182;8.624;2022-12-24T08:54:08;38.30;;;7.50;;
51010;SDS011;37038;50.182;8.624;2022-12-24T08:57:24;36.45;;;6.75;;
51010;SDS011;37038;50.182;8.624;2022-12-24T09:00:24;28.52;;;7.72;;
51010;SDS011;37038;50.182;8.624;2022-12-24T09:03:14;25.23;;;6.13;;
51010;SDS011;37038;50.182;8.624;2022-12-24T09:06:13;36.80;;;8.13;;
51010;SDS011;37038;50.182;8.624;2022-12-24T09:09:05;33.15;;;8.13;;
51010;SDS011;37038;50.182;8.624;2022-12-24T09:11:54;36.83;;;7.30;;
51010;SDS011;37038;50.182;8.624;2022-12-24T09:14:43;37.75;;;7.88;;
51010;SDS011;37038;50.182;8.624;2022-12-24T09:17:33;35.38;;;8.68;;
51010;SDS011;37038;50.182;8.624;2022-12-24T09:20:32;33.90;;;7.65;;
51010;SDS011;37038;50.182;8.624;2022-12-24T09:23:23;32.88;;;7.63;;
51010;SDS011;37038;50.182;8.624;2022-12-24T09:26:22;35.55;;;7.88;;
51010;SDS011;37038;50.182;8.624;2022-12-24T09:29:18;35.78;;;8.90;;
51010;SDS011;37038;50.182;8.624;2022-12-24T09:32:09;37.65;;;8.18;;
51010;SDS011;37038;50.182;8.624;2022-12-24T09:35:06;33.60;;;8.45;;
51010;SDS011;37038;50.182;8.624;2022-12-24T09:38:12;37.15;;;8.52;;
51010;SDS011;37038;50.182;8.624;2022-12-24T09:45:05;41.28;;;8.13;;
51010;SDS011;37038;50.182;8.624;2022-12-24T09:48:36;35.78;;;8.75;;
51010;SDS011;37038;50.182;8.624;2022-12-24T09:54:30;30.27;;;7.13;;
51010;SDS011;37038;50.182;8.624;2022-12-24T09:57:29;26.10;;;6.85;;
51010;SDS011;37038;50.182;8.624;2022-12-24T10:00:28;30.38;;;6.40;;
51010;SDS011;37038;50.182;8.624;2022-12-24T10:03:20;22.27;;;6.30;;
51010;SDS011;37038;50.182;8.624;2022-12-24T10:06:13;32.90;;;7.78;;
51010;SDS011;37038;50.182;8.624;2022-12-24T10:09:19;27.15;;;5.88;;
51010;SDS011;37038;50.182;8.624;2022-12-24T10:16:23;30.02;;;8.13;;
51010;SDS011;37038;50.182;8.624;2022-12-24T10:19:55;36.05;;;7.45;;
51010;SDS011;37038;50.182;8.624;2022-12-24T10:23:13;33.28;;;6.95;;
51010;SDS011;37038;50.182;8.624;2022-12-24T10:26:57;32.58;;;7.15;;
51010;SDS011;37038;50.182;8.624;2022-12-24T10:38:41;31.27;;;8.27;;
51010;SDS011;37038;50.182;8.624;2022-12-24T10:41:37;36.72;;;7.40;;
51010;SDS011;37038;50.182;8.624;2022-12-24T10:45:15;32.47;;;9.02;;
51010;SDS011;37038;50.182;8.624;2022-12-24T10:49:06;30.35;;;7.68;;
51010;SDS011;37038;50.182;8.624;2022-12-24T11:42:00;25.92;;;6.85;;
51010;SDS011;37038;50.182;8.624;2022-12-24T11:44:50;36.15;;;7.90;;
51010;SDS011;37038;50.182;8.624;2022-12-24T11:47:42;34.50;;;8.38;;
51010;SDS011;37038;50.182;8.624;2022-12-24T12:01:58;28.05;;;7.57;;
51010;SDS011;37038;50.182;8.624;2022-12-24T12:05:36;36.20;;;7.13;;
51010;SDS011;37038;50.182;8.624;2022-12-24T12:08:54;29.92;;;7.53;;
51010;SDS011;37038;50.182;8.624;2022-12-24T12:12:15;26.67;;;7.15;;
51010;SDS011;37038;50.182;8.624;2022-12-24T12:15:44;32.22;;;6.82;;
51010;SDS011;37038;50.182;8.624;2022-12-24T12:19:02;22.83;;;6.55;;
51010;SDS011;37038;50.182;8.624;2022-12-24T12:32:25;24.48;;;5.80;;
51010;SDS011;37038;50.182;8.624;2022-12-24T12:35:38;19.27;;;6.30;;
51010;SDS011;37038;50.182;8.624;2022-12-24T12:38:52;24.35;;;6.05;;
51010;SDS011;37038;50.182;8.624;2022-12-24T12:45:31;25.20;;;6.80;;
51010;SDS011;37038;50.182;8.624;2022-12-24T12:58:40;36.92;;;7.35;;
51010;SDS011;37038;50.182;8.624;2022-12-24T13:08:50;16.02;;;4.78;;
51010;SDS011;37038;50.182;8.624;2022-12-24T13:12:29;26.38;;;5.53;;
51010;SDS011;37038;50.182;8.624;2022-12-24T13:21:55;22.98;;;5.53;;
51010;SDS011;37038;50.182;8.624;2022-12-24T13:24:51;19.92;;;5.15;;
51010;SDS011;37038;50.182;8.624;2022-12-24T13:27:41;19.88;;;4.53;;
51010;SDS011;37038;50.182;8.624;2022-12-24T13:30:34;23.60;;;4.93;;
51010;SDS011;37038;50.182;8.624;2022-12-24T13:45:53;22.42;;;5.32;;
51010;SDS011;37038;50.182;8.624;2022-12-24T13:48:42;22.23;;;5.72;;
51010;SDS011;37038;50.182;8.624;2022-12-24T13:51:35;30.30;;;6.97;;
51010;SDS011;37038;50.182;8.624;2022-12-24T13:54:23;20.25;;;5.22;;
51010;SDS011;37038;50.182;8.624;2022-12-24T14:00:50;19.60;;;5.80;;
51010;SDS011;37038;50.182;8.624;2022-12-24T14:06:48;29.95;;;6.88;;
51010;SDS011;37038;50.182;8.624;2022-12-24T14:10:05;25.48;;;6.90;;
51010;SDS011;37038;50.182;8.624;2022-12-24T14:21:24;22.42;;;6.03;;
51010;SDS011;37038;50.182;8.624;2022-12-24T14:57:14;31.15;;;6.63;;
51010;SDS011;37038;50.182;8.624;2022-12-24T15:00:17;30.10;;;6.57;;
51010;SDS011;37038;50.182;8.624;2022-12-24T15:03:11;30.75;;;7.40;;
51010;SDS011;37038;50.182;8.624;2022-12-24T15:06:03;27.73;;;7.68;;
51010;SDS011;37038;50.182;8.624;2022-12-24T15:08:53;30.45;;;7.65;;
51010;SDS011;37038;50.182;8.624;2022-12-24T15:11:42;37.13;;;7.82;;
51010;SDS011;37038;50.182;8.624;2022-12-24T15:14:41;35.53;;;7.07;;
51010;SDS011;37038;50.182;8.624;2022-12-24T15:17:38;30.95;;;8.63;;
51010;SDS011;37038;50.182;8.624;2022-12-24T15:20:30;32.20;;;8.75;;
51010;SDS011;37038;50.182;8.624;2022-12-24T15:23:20;41.72;;;8.13;;
51010;SDS011;37038;50.182;8.624;2022-12-24T15:29:44;30.48;;;7.97;;
51010;SDS011;37038;50.182;8.624;2022-12-24T15:32:26;29.40;;;8.48;;
51010;SDS011;37038;50.182;8.624;2022-12-24T15:35:29;28.30;;;8.13;;
51010;SDS011;37038;50.182;8.624;2022-12-24T15:38:49;27.30;;;7.88;;
51010;SDS011;37038;50.182;8.624;2022-12-24T15:41:42;37.03;;;8.75;;
51010;SDS011;37038;50.182;8.624;2022-12-24T15:48:22;28.88;;;8.02;;
51010;SDS011;37038;50.182;8.624;2022-12-24T15:51:31;34.22;;;9.98;;
51010;SDS011;37038;50.182;8.624;2022-12-24T15:54:42;34.63;;;9.55;;
51010;SDS011;37038;50.182;8.624;2022-12-24T16:02:31;30.00;;;9.25;;
51010;SDS011;37038;50.182;8.624;2022-12-24T16:08:59;32.90;;;9.68;;
51010;SDS011;37038;50.182;8.624;2022-12-24T16:11:52;38.45;;;9.80;;
51010;SDS011;37038;50.182;8.624;2022-12-24T16:14:50;34.22;;;9.52;;
51010;SDS011;37038;50.182;8.624;2022-12-24T16:17:49;42.00;;;10.77;;
51010;SDS011;37038;50.182;8.624;2022-12-24T16:20:39;39.13;;;10.43;;
51010;SDS011;37038;50.182;8.624;2022-12-24T16:23:44;39.83;;;10.00;;
51010;SDS011;37038;50.182;8.624;2022-12-24T16:26:46;30.50;;;9.65;;
51010;SDS011;37038;50.182;8.624;2022-12-24T16:29:45;34.05;;;10.13;;
51010;SDS011;37038;50.182;8.624;2022-12-24T16:32:36;40.90;;;11.55;;
51010;SDS011;37038;50.182;8.624;2022-12-24T16:35:48;34.53;;;11.35;;
51010;SDS011;37038;50.182;8.624;2022-12-24T16:42:13;53.42;;;15.18;;
51010;SDS011;37038;50.182;8.624;2022-12-24T16:45:27;53.35;;;16.75;;
51010;SDS011;37038;50.182;8.624;2022-12-24T16:48:25;37.78;;;13.82;;
51010;SDS011;37038;50.182;8.624;2022-12-24T16:51:20;45.95;;;15.00;;
51010;SDS011;37038;50.182;8.624;2022-12-24T16:54:13;42.55;;;13.57;;
51010;SDS011;37038;50.182;8.624;2022-12-24T16:57:08;41.30;;;11.50;;
51010;SDS011;37038;50.182;8.624;2022-12-24T17:00:14;29.63;;;11.38;;
51010;SDS011;37038;50.182;8.624;2022-12-24T17:06:14;31.92;;;8.73;;
51010;SDS011;37038;50.182;8.624;2022-12-24T17:09:07;38.85;;;11.35;;
51010;SDS011;37038;50.182;8.624;2022-12-24T17:12:05;30.15;;;9.77;;
51010;SDS011;37038;50.182;8.624;2022-12-24T17:15:07;39.53;;;10.27;;
51010;SDS011;37038;50.182;8.624;2022-12-24T17:18:08;30.42;;;11.00;;
51010;SDS011;37038;50.182;8.624;2022-12-24T17:21:02;40.95;;;11.95;;
51010;SDS011;37038;50.182;8.624;2022-12-24T17:23:54;29.77;;;11.13;;
51010;SDS011;37038;50.182;8.624;2022-12-24T17:26:51;28.38;;;10.57;;
51010;SDS011;37038;50.182;8.624;2022-12-24T17:30:27;31.48;;;11.07;;
51010;SDS011;37038;50.182;8.624;2022-12-24T17:33:30;34.30;;;10.95;;
51010;SDS011;37038;50.182;8.624;2022-12-24T17:36:25;36.72;;;12.65;;
51010;SDS011;37038;50.182;8.624;2022-12-24T17:39:22;40.33;;;11.45;;
51010;SDS011;37038;50.182;8.624;2022-12-24T17:42:17;44.85;;;13.90;;
51010;SDS011;37038;50.182;8.624;2022-12-24T17:45:09;28.92;;;13.80;;
51010;SDS011;37038;50.182;8.624;2022-12-24T17:48:15;34.22;;;12.88;;
51010;SDS011;37038;50.182;8.624;2022-12-24T17:51:21;32.20;;;14.05;;
51010;SDS011;37038;50.182;8.624;2022-12-24T17:54:16;47.17;;;14.93;;
51010;SDS011;37038;50.182;8.624;2022-12-24T17:57:28;39.35;;;13.52;;
51010;SDS011;37038;50.182;8.624;2022-12-24T18:00:28;34.25;;;12.63;;
51010;SDS011;37038;50.182;8.624;2022-12-24T18:03:24;47.07;;;14.57;;
51010;SDS011;37038;50.182;8.624;2022-12-24T18:06:18;43.40;;;14.70;;
51010;SDS011;37038;50.182;8.624;2022-12-24T18:09:44;47.00;;;16.25;;
51010;SDS011;37038;50.182;8.624;2022-12-24T18:12:57;40.28;;;14.60;;
51010;SDS011;37038;50.182;8.624;2022-12-24T18:15:55;41.35;;;15.85;;
51010;SDS011;37038;50.182;8.624;2022-12-24T18:18:57;38.42;;;15.30;;
51010;SDS011;37038;50.182;8.624;2022-12-24T18:22:01;31.73;;;14.05;;
51010;SDS011;37038;50.182;8.624;2022-12-24T18:24:57;39.90;;;15.68;;
51010;SDS011;37038;50.182;8.624;2022-12-24T18:27:49;39.03;;;14.93;;
51010;SDS011;37038;50.182;8.624;2022-12-24T18:30:41;36.47;;;14.55;;
51010;SDS011;37038;50.182;8.624;2022-12-24T18:33:42;32.00;;;14.87;;
51010;SDS011;37038;50.182;8.624;2022-12-24T18:36:47;33.78;;;15.10;;
51010;SDS011;37038;50.182;8.624;2022-12-24T18:39:47;39.17;;;16.55;;
51010;SDS011;37038;50.182;8.624;2022-12-24T18:43:11;35.10;;;14.68;;
51010;SDS011;37038;50.182;8.624;2022-12-24T18:46:15;28.70;;;14.73;;
51010;SDS011;37038;50.182;8.624;2022-12-24T18:49:19;31.27;;;13.63;;
51010;SDS011;37038;50.182;8.624;2022-12-24T18:52:13;47.58;;;16.48;;
51010;SDS011;37038;50.182;8.624;2022-12-24T18:55:14;38.40;;;15.25;;
51010;SDS011;37038;50.182;8.624;2022-12-24T18:58:10;39.10;;;16.08;;
51010;SDS011;37038;50.182;8.624;2022-12-24T19:01:12;40.70;;;15.97;;
51010;SDS011;37038;50.182;8.624;2022-12-24T19:04:12;32.33;;;14.75;;
51010;SDS011;37038;50.182;8.624;2022-12-24T19:07:19;29.38;;;14.35;;
51010;SDS011;37038;50.182;8.624;2022-12-24T19:10:20;37.35;;;15.52;;
51010;SDS011;37038;50.182;8.624;2022-12-24T19:13:20;33.42;;;15.32;;
51010;SDS011;37038;50.182;8.624;2022-12-24T19:21:48;27.97;;;14.00;;
51010;SDS011;37038;50.182;8.624;2022-12-24T19:24:48;30.85;;;13.98;;
51010;SDS011;37038;50.182;8.624;2022-12-24T19:28:06;32.08;;;14.35;;
51010;SDS011;37038;50.182;8.624;2022-12-24T19:31:30;33.58;;;14.40;;
51010;SDS011;37038;50.182;8.624;2022-12-24T19:38:38;29.65;;;14.60;;
51010;SDS011;37038;50.182;8.624;2022-12-24T20:56:19;42.30;;;17.47;;
51010;SDS011;37038;50.182;8.624;2022-12-24T20:59:47;35.08;;;16.25;;
51010;SDS011;37038;50.182;8.624;2022-12-24T21:07:04;45.45;;;16.77;;
51010;SDS011;37038;50.182;8.624;2022-12-24T21:13:40;41.30;;;17.60;;
51010;SDS011;37038;50.182;8.624;2022-12-24T21:17:25;40.20;;;16.27;;
51010;SDS011;37038;50.182;8.624;2022-12-24T21:23:48;35.38;;;15.52;;
